sensor_id;sensor_type;location;lat;lon;timestamp;temperature;humidity
3850;DHT22;1940;51.052;13.678;2023-04-15T00:00:42;7.30;95.20
3850;DHT22;1940;51.052;13.678;2023-04-15T00:03:07;7.30;95.20
3850;DHT22;1940;51.052;13.678;2023-04-15T00:05:33;7.30;95.20
3850;DHT22;1940;51.052;13.678;2023-04-15T00:07:59;7.30;95.20
3850;DHT22;1940;51.052;13.678;2023-04-15T00:10:26;7.20;95.20
3850;DHT22;1940;51.052;13.678;2023-04-15T00:12:51;7.20;95.20
3850;DHT22;1940;51.052;13.678;2023-04-15T00:15:17;7.20;95.20
3850;DHT22;1940;51.052;13.678;2023-04-15T00:17:42;7.20;95.20
3850;DHT22;1940;51.052;13.678;2023-04-15T00:20:08;7.20;95.20
3850;DHT22;1940;51.052;13.678;2023-04-15T00:22:34;7.30;95.20
3850;DHT22;1940;51.052;13.678;2023-04-15T00:25:01;7.30;95.20
3850;DHT22;1940;51.052;13.678;2023-04-15T00:27:26;7.20;95.20
3850;DHT22;1940;51.052;13.678;2023-04-15T00:29:52;7.20;95.20
3850;DHT22;1940;51.052;13.678;2023-04-15T00:32:17;7.20;95.20
3850;DHT22;1940;51.052;13.678;2023-04-15T00:34:42;7.30;95.20
3850;DHT22;1940;51.052;13.678;2023-04-15T00:37:09;7.30;95.20
3850;DHT22;1940;51.052;13.678;2023-04-15T00:39:35;7.40;95.20
3850;DHT22;1940;51.052;13.678;2023-04-15T00:42:01;7.40;95.20
3850;DHT22;1940;51.052;13.678;2023-04-15T00:44:27;7.40;95.20
3850;DHT22;1940;51.052;13.678;2023-04-15T00:46:53;7.40;95.20
3850;DHT22;1940;51.052;13.678;2023-04-15T00:49:19;7.40;95.20
3850;DHT22;1940;51.052;13.678;2023-04-15T00:51:45;7.30;95.20
3850;DHT22;1940;51.052;13.678;2023-04-15T00:54:10;7.40;95.20
3850;DHT22;1940;51.052;13.678;2023-04-15T00:56:37;7.40;95.20
3850;DHT22;1940;51.052;13.678;2023-04-15T00:59:06;7.30;95.20
3850;DHT22;1940;51.052;13.678;2023-04-15T01:01:36;7.40;95.20
3850;DHT22;1940;51.052;13.678;2023-04-15T01:04:02;7.30;95.20
3850;DHT22;1940;51.052;13.678;2023-04-15T01:06:29;7.30;95.20
3850;DHT22;1940;51.052;13.678;2023-04-15T01:08:56;7.30;95.20
3850;DHT22;1940;51.052;13.678;2023-04-15T01:11:22;7.30;95.20
3850;DHT22;1940;51.052;13.678;2023-04-15T01:13:48;7.30;95.20
3850;DHT22;1940;51.052;13.678;2023-04-15T01:16:14;7.40;95.20
3850;DHT22;1940;51.052;13.678;2023-04-15T01:18:41;7.40;95.20
3850;DHT22;1940;51.052;13.678;2023-04-15T01:21:06;7.40;95.20
3850;DHT22;1940;51.052;13.678;2023-04-15T01:23:35;7.40;95.20
3850;DHT22;1940;51.052;13.678;2023-04-15T01:26:02;7.40;95.20
3850;DHT22;1940;51.052;13.678;2023-04-15T01:28:27;7.30;95.20
3850;DHT22;1940;51.052;13.678;2023-04-15T01:33:32;7.40;95.20
3850;DHT22;1940;51.052;13.678;2023-04-15T01:35:57;7.40;95.20
3850;DHT22;1940;51.052;13.678;2023-04-15T01:38:24;7.40;95.20
3850;DHT22;1940;51.052;13.678;2023-04-15T01:40:50;7.40;95.20
3850;DHT22;1940;51.052;13.678;2023-04-15T01:43:15;7.40;95.20
3850;DHT22;1940;51.052;13.678;2023-04-15T01:45:40;7.40;95.20
3850;DHT22;1940;51.052;13.678;2023-04-15T01:48:06;7.40;95.20
3850;DHT22;1940;51.052;13.678;2023-04-15T01:50:32;7.40;95.20
3850;DHT22;1940;51.052;13.678;2023-04-15T01:52:58;7.40;95.20
3850;DHT22;1940;51.052;13.678;2023-04-15T01:55:23;7.40;95.20
3850;DHT22;1940;51.052;13.678;2023-04-15T01:57:49;7.40;95.20
3850;DHT22;1940;51.052;13.678;2023-04-15T02:00:14;7.40;95.20
3850;DHT22;1940;51.052;13.678;2023-04-15T02:02:40;7.40;95.20
3850;DHT22;1940;51.052;13.678;2023-04-15T02:05:06;7.40;95.20
3850;DHT22;1940;51.052;13.678;2023-04-15T02:07:32;7.50;95.20
3850;DHT22;1940;51.052;13.678;2023-04-15T02:09:57;7.40;95.20
3850;DHT22;1940;51.052;13.678;2023-04-15T02:12:23;7.40;95.20
3850;DHT22;1940;51.052;13.678;2023-04-15T02:14:48;7.40;95.20
3850;DHT22;1940;51.052;13.678;2023-04-15T02:17:14;7.30;95.20
3850;DHT22;1940;51.052;13.678;2023-04-15T02:19:39;7.30;95.20
3850;DHT22;1940;51.052;13.678;2023-04-15T02:22:05;7.20;95.20
3850;DHT22;1940;51.052;13.678;2023-04-15T02:24:32;7.30;95.20
3850;DHT22;1940;51.052;13.678;2023-04-15T02:26:57;7.30;95.20
3850;DHT22;1940;51.052;13.678;2023-04-15T02:29:23;7.30;95.20
3850;DHT22;1940;51.052;13.678;2023-04-15T02:31:48;7.30;95.20
3850;DHT22;1940;51.052;13.678;2023-04-15T02:34:14;7.40;95.20
3850;DHT22;1940;51.052;13.678;2023-04-15T02:36:40;7.40;95.20
3850;DHT22;1940;51.052;13.678;2023-04-15T02:39:06;7.40;95.20
3850;DHT22;1940;51.052;13.678;2023-04-15T02:41:31;7.40;95.20
3850;DHT22;1940;51.052;13.678;2023-04-15T02:43:57;7.30;95.20
3850;DHT22;1940;51.052;13.678;2023-04-15T02:46:22;7.40;95.20
3850;DHT22;1940;51.052;13.678;2023-04-15T02:48:48;7.40;95.20
3850;DHT22;1940;51.052;13.678;2023-04-15T02:51:19;7.40;95.20
3850;DHT22;1940;51.052;13.678;2023-04-15T02:53:46;7.40;95.20
3850;DHT22;1940;51.052;13.678;2023-04-15T02:56:11;7.50;95.20
3850;DHT22;1940;51.052;13.678;2023-04-15T02:58:39;7.50;95.20
3850;DHT22;1940;51.052;13.678;2023-04-15T03:01:04;7.50;95.20
3850;DHT22;1940;51.052;13.678;2023-04-15T03:03:30;7.60;95.20
3850;DHT22;1940;51.052;13.678;2023-04-15T03:05:55;7.60;95.20
3850;DHT22;1940;51.052;13.678;2023-04-15T03:08:21;7.40;95.20
3850;DHT22;1940;51.052;13.678;2023-04-15T03:10:46;7.50;95.20
3850;DHT22;1940;51.052;13.678;2023-04-15T03:13:12;7.40;95.20
3850;DHT22;1940;51.052;13.678;2023-04-15T03:15:38;7.40;95.20
3850;DHT22;1940;51.052;13.678;2023-04-15T03:18:03;7.40;95.20
3850;DHT22;1940;51.052;13.678;2023-04-15T03:20:29;7.40;95.20
3850;DHT22;1940;51.052;13.678;2023-04-15T03:22:54;7.40;95.20
3850;DHT22;1940;51.052;13.678;2023-04-15T03:25:20;7.40;95.20
3850;DHT22;1940;51.052;13.678;2023-04-15T03:27:45;7.40;95.20
3850;DHT22;1940;51.052;13.678;2023-04-15T03:30:11;7.40;95.20
3850;DHT22;1940;51.052;13.678;2023-04-15T03:32:38;7.40;95.20
3850;DHT22;1940;51.052;13.678;2023-04-15T03:35:04;7.40;95.20
3850;DHT22;1940;51.052;13.678;2023-04-15T03:37:29;7.40;95.20
3850;DHT22;1940;51.052;13.678;2023-04-15T03:39:55;7.40;95.20
3850;DHT22;1940;51.052;13.678;2023-04-15T03:42:20;7.30;95.20
3850;DHT22;1940;51.052;13.678;2023-04-15T03:44:46;7.30;95.20
3850;DHT22;1940;51.052;13.678;2023-04-15T03:47:11;7.30;95.20
3850;DHT22;1940;51.052;13.678;2023-04-15T03:49:37;7.30;95.20
3850;DHT22;1940;51.052;13.678;2023-04-15T03:52:02;7.30;95.20
3850;DHT22;1940;51.052;13.678;2023-04-15T03:54:28;7.30;95.20
3850;DHT22;1940;51.052;13.678;2023-04-15T03:56:54;7.30;95.20
3850;DHT22;1940;51.052;13.678;2023-04-15T03:59:20;7.40;95.20
3850;DHT22;1940;51.052;13.678;2023-04-15T04:01:45;7.40;95.20
3850;DHT22;1940;51.052;13.678;2023-04-15T04:04:11;7.40;95.20
3850;DHT22;1940;51.052;13.678;2023-04-15T04:06:36;7.50;95.20
3850;DHT22;1940;51.052;13.678;2023-04-15T04:09:02;7.50;95.20
3850;DHT22;1940;51.052;13.678;2023-04-15T04:11:27;7.50;95.20
3850;DHT22;1940;51.052;13.678;2023-04-15T04:13:53;7.50;95.20
3850;DHT22;1940;51.052;13.678;2023-04-15T04:16:18;7.50;95.20
3850;DHT22;1940;51.052;13.678;2023-04-15T04:19:21;7.50;95.20
3850;DHT22;1940;51.052;13.678;2023-04-15T04:21:47;7.60;95.20
3850;DHT22;1940;51.052;13.678;2023-04-15T04:24:12;7.60;95.20
3850;DHT22;1940;51.052;13.678;2023-04-15T04:26:38;7.60;95.20
3850;DHT22;1940;51.052;13.678;2023-04-15T04:29:03;7.50;95.20
3850;DHT22;1940;51.052;13.678;2023-04-15T04:31:29;7.50;95.20
3850;DHT22;1940;51.052;13.678;2023-04-15T04:33:54;7.50;95.20
3850;DHT22;1940;51.052;13.678;2023-04-15T04:36:19;7.60;95.20
3850;DHT22;1940;51.052;13.678;2023-04-15T04:38:45;7.60;95.20
3850;DHT22;1940;51.052;13.678;2023-04-15T04:41:10;7.50;95.20
3850;DHT22;1940;51.052;13.678;2023-04-15T04:43:36;7.50;95.20
3850;DHT22;1940;51.052;13.678;2023-04-15T04:46:01;7.50;95.20
3850;DHT22;1940;51.052;13.678;2023-04-15T04:48:27;7.50;95.20
3850;DHT22;1940;51.052;13.678;2023-04-15T04:50:52;7.60;95.20
3850;DHT22;1940;51.052;13.678;2023-04-15T04:53:18;7.60;95.20
3850;DHT22;1940;51.052;13.678;2023-04-15T04:55:43;7.60;95.20
3850;DHT22;1940;51.052;13.678;2023-04-15T04:58:09;7.60;95.20
3850;DHT22;1940;51.052;13.678;2023-04-15T05:00:35;7.70;95.20
3850;DHT22;1940;51.052;13.678;2023-04-15T05:03:02;7.60;95.20
3850;DHT22;1940;51.052;13.678;2023-04-15T05:05:28;7.60;95.20
3850;DHT22;1940;51.052;13.678;2023-04-15T05:07:53;7.70;95.20
3850;DHT22;1940;51.052;13.678;2023-04-15T05:10:19;7.70;95.20
3850;DHT22;1940;51.052;13.678;2023-04-15T05:12:44;7.80;95.20
3850;DHT22;1940;51.052;13.678;2023-04-15T05:15:10;7.80;95.20
3850;DHT22;1940;51.052;13.678;2023-04-15T05:17:36;7.80;95.20
3850;DHT22;1940;51.052;13.678;2023-04-15T05:20:02;8.00;95.20
3850;DHT22;1940;51.052;13.678;2023-04-15T05:22:28;7.90;95.20
3850;DHT22;1940;51.052;13.678;2023-04-15T05:24:53;8.00;95.20
3850;DHT22;1940;51.052;13.678;2023-04-15T05:27:19;8.00;95.20
3850;DHT22;1940;51.052;13.678;2023-04-15T05:29:44;8.10;95.20
3850;DHT22;1940;51.052;13.678;2023-04-15T05:32:10;8.10;95.20
3850;DHT22;1940;51.052;13.678;2023-04-15T05:34:36;8.10;95.20
3850;DHT22;1940;51.052;13.678;2023-04-15T05:37:01;8.10;95.20
3850;DHT22;1940;51.052;13.678;2023-04-15T05:39:27;8.10;95.20
3850;DHT22;1940;51.052;13.678;2023-04-15T05:41:53;8.10;95.20
3850;DHT22;1940;51.052;13.678;2023-04-15T05:44:18;8.10;95.20
3850;DHT22;1940;51.052;13.678;2023-04-15T05:46:44;8.20;95.20
3850;DHT22;1940;51.052;13.678;2023-04-15T05:49:09;8.20;95.20
3850;DHT22;1940;51.052;13.678;2023-04-15T05:51:35;8.10;95.20
3850;DHT22;1940;51.052;13.678;2023-04-15T05:54:00;8.20;95.20
3850;DHT22;1940;51.052;13.678;2023-04-15T05:56:26;8.20;95.20
3850;DHT22;1940;51.052;13.678;2023-04-15T05:58:52;8.20;95.20
3850;DHT22;1940;51.052;13.678;2023-04-15T06:01:17;8.20;95.20
3850;DHT22;1940;51.052;13.678;2023-04-15T06:03:43;8.20;95.20
3850;DHT22;1940;51.052;13.678;2023-04-15T06:06:09;8.20;95.20
3850;DHT22;1940;51.052;13.678;2023-04-15T06:08:34;8.10;95.20
3850;DHT22;1940;51.052;13.678;2023-04-15T06:14:15;8.20;95.20
3850;DHT22;1940;51.052;13.678;2023-04-15T06:16:41;8.10;95.20
3850;DHT22;1940;51.052;13.678;2023-04-15T06:19:06;8.10;95.20
3850;DHT22;1940;51.052;13.678;2023-04-15T06:21:32;8.10;95.20
3850;DHT22;1940;51.052;13.678;2023-04-15T06:23:58;8.10;95.20
3850;DHT22;1940;51.052;13.678;2023-04-15T06:26:25;8.10;95.20
3850;DHT22;1940;51.052;13.678;2023-04-15T06:28:51;8.10;95.20
3850;DHT22;1940;51.052;13.678;2023-04-15T06:31:17;8.10;95.20
3850;DHT22;1940;51.052;13.678;2023-04-15T06:33:42;8.10;95.20
3850;DHT22;1940;51.052;13.678;2023-04-15T06:36:07;8.00;95.20
3850;DHT22;1940;51.052;13.678;2023-04-15T06:38:33;8.10;95.20
3850;DHT22;1940;51.052;13.678;2023-04-15T06:40:58;8.10;95.20
3850;DHT22;1940;51.052;13.678;2023-04-15T06:43:24;8.20;95.20
3850;DHT22;1940;51.052;13.678;2023-04-15T06:45:50;8.20;95.20
3850;DHT22;1940;51.052;13.678;2023-04-15T06:48:16;8.20;95.20
3850;DHT22;1940;51.052;13.678;2023-04-15T06:50:42;8.20;95.20
3850;DHT22;1940;51.052;13.678;2023-04-15T06:53:07;8.20;95.20
3850;DHT22;1940;51.052;13.678;2023-04-15T06:55:33;8.20;95.20
3850;DHT22;1940;51.052;13.678;2023-04-15T06:57:58;8.20;95.20
3850;DHT22;1940;51.052;13.678;2023-04-15T07:00:25;8.20;95.20
3850;DHT22;1940;51.052;13.678;2023-04-15T07:02:52;8.20;95.20
3850;DHT22;1940;51.052;13.678;2023-04-15T07:05:19;8.20;95.20
3850;DHT22;1940;51.052;13.678;2023-04-15T07:07:44;8.20;95.20
3850;DHT22;1940;51.052;13.678;2023-04-15T07:10:10;8.30;95.20
3850;DHT22;1940;51.052;13.678;2023-04-15T07:12:36;8.30;95.20
3850;DHT22;1940;51.052;13.678;2023-04-15T07:15:02;8.40;95.20
3850;DHT22;1940;51.052;13.678;2023-04-15T07:17:28;8.40;95.20
3850;DHT22;1940;51.052;13.678;2023-04-15T07:19:53;8.40;95.20
3850;DHT22;1940;51.052;13.678;2023-04-15T07:22:19;8.50;95.20
3850;DHT22;1940;51.052;13.678;2023-04-15T07:24:45;8.50;95.20
3850;DHT22;1940;51.052;13.678;2023-04-15T07:27:10;8.50;95.20
3850;DHT22;1940;51.052;13.678;2023-04-15T07:29:36;8.50;95.20
3850;DHT22;1940;51.052;13.678;2023-04-15T07:32:02;8.60;95.20
3850;DHT22;1940;51.052;13.678;2023-04-15T07:34:28;8.50;95.20
3850;DHT22;1940;51.052;13.678;2023-04-15T07:36:54;8.50;95.20
3850;DHT22;1940;51.052;13.678;2023-04-15T07:39:19;8.60;95.20
3850;DHT22;1940;51.052;13.678;2023-04-15T07:41:45;8.60;95.20
3850;DHT22;1940;51.052;13.678;2023-04-15T07:44:11;8.70;95.20
3850;DHT22;1940;51.052;13.678;2023-04-15T07:46:36;8.80;95.20
3850;DHT22;1940;51.052;13.678;2023-04-15T07:49:02;8.90;95.20
3850;DHT22;1940;51.052;13.678;2023-04-15T07:51:28;9.00;95.20
3850;DHT22;1940;51.052;13.678;2023-04-15T07:53:54;9.10;95.00
3850;DHT22;1940;51.052;13.678;2023-04-15T07:56:19;9.10;94.80
3850;DHT22;1940;51.052;13.678;2023-04-15T07:58:45;9.20;94.50
3850;DHT22;1940;51.052;13.678;2023-04-15T08:01:11;9.20;93.70
3850;DHT22;1940;51.052;13.678;2023-04-15T08:03:37;9.30;94.20
3850;DHT22;1940;51.052;13.678;2023-04-15T08:06:03;9.30;93.30
3850;DHT22;1940;51.052;13.678;2023-04-15T08:08:29;9.40;93.60
3850;DHT22;1940;51.052;13.678;2023-04-15T08:10:54;9.50;93.10
3850;DHT22;1940;51.052;13.678;2023-04-15T08:13:20;9.60;92.70
3850;DHT22;1940;51.052;13.678;2023-04-15T08:15:52;9.80;92.60
3850;DHT22;1940;51.052;13.678;2023-04-15T08:18:17;10.10;91.80
3850;DHT22;1940;51.052;13.678;2023-04-15T08:20:43;10.40;90.70
3850;DHT22;1940;51.052;13.678;2023-04-15T08:23:08;10.40;89.10
3850;DHT22;1940;51.052;13.678;2023-04-15T08:25:34;10.50;88.80
3850;DHT22;1940;51.052;13.678;2023-04-15T08:28:03;10.50;88.30
3850;DHT22;1940;51.052;13.678;2023-04-15T08:30:31;10.70;88.90
3850;DHT22;1940;51.052;13.678;2023-04-15T08:32:56;11.00;89.50
3850;DHT22;1940;51.052;13.678;2023-04-15T08:35:22;11.40;89.30
3850;DHT22;1940;51.052;13.678;2023-04-15T08:37:47;11.60;85.80
3850;DHT22;1940;51.052;13.678;2023-04-15T08:40:13;11.60;84.80
3850;DHT22;1940;51.052;13.678;2023-04-15T08:42:46;11.70;85.50
3850;DHT22;1940;51.052;13.678;2023-04-15T08:45:13;11.60;86.40
3850;DHT22;1940;51.052;13.678;2023-04-15T08:47:39;11.70;85.00
3850;DHT22;1940;51.052;13.678;2023-04-15T08:50:08;11.70;84.80
3850;DHT22;1940;51.052;13.678;2023-04-15T08:52:34;11.70;85.20
3850;DHT22;1940;51.052;13.678;2023-04-15T08:55:01;11.70;85.00
3850;DHT22;1940;51.052;13.678;2023-04-15T08:57:27;11.80;83.90
3850;DHT22;1940;51.052;13.678;2023-04-15T08:59:55;11.90;83.70
3850;DHT22;1940;51.052;13.678;2023-04-15T09:02:23;12.00;83.50
3850;DHT22;1940;51.052;13.678;2023-04-15T09:04:49;11.90;82.50
3850;DHT22;1940;51.052;13.678;2023-04-15T09:07:14;11.80;82.90
3850;DHT22;1940;51.052;13.678;2023-04-15T09:09:40;11.60;83.50
3850;DHT22;1940;51.052;13.678;2023-04-15T09:12:07;11.60;83.70
3850;DHT22;1940;51.052;13.678;2023-04-15T09:14:33;11.50;84.20
3850;DHT22;1940;51.052;13.678;2023-04-15T09:17:01;11.60;84.60
3850;DHT22;1940;51.052;13.678;2023-04-15T09:19:27;11.70;84.00
3850;DHT22;1940;51.052;13.678;2023-04-15T09:21:55;11.80;83.60
3850;DHT22;1940;51.052;13.678;2023-04-15T09:24:24;11.90;83.60
3850;DHT22;1940;51.052;13.678;2023-04-15T09:26:52;12.00;83.30
3850;DHT22;1940;51.052;13.678;2023-04-15T09:29:19;12.10;83.40
3850;DHT22;1940;51.052;13.678;2023-04-15T09:31:44;12.10;82.00
3850;DHT22;1940;51.052;13.678;2023-04-15T09:34:10;12.20;81.70
3850;DHT22;1940;51.052;13.678;2023-04-15T09:36:55;12.20;81.50
3850;DHT22;1940;51.052;13.678;2023-04-15T09:39:21;12.10;82.90
3850;DHT22;1940;51.052;13.678;2023-04-15T09:42:03;11.80;83.90
3850;DHT22;1940;51.052;13.678;2023-04-15T09:44:29;11.60;84.90
3850;DHT22;1940;51.052;13.678;2023-04-15T09:46:55;11.50;84.90
3850;DHT22;1940;51.052;13.678;2023-04-15T09:49:21;11.20;85.20
3850;DHT22;1940;51.052;13.678;2023-04-15T09:51:47;11.00;85.10
3850;DHT22;1940;51.052;13.678;2023-04-15T09:54:18;10.90;85.30
3850;DHT22;1940;51.052;13.678;2023-04-15T09:56:45;10.70;84.80
3850;DHT22;1940;51.052;13.678;2023-04-15T09:59:10;10.50;84.60
3850;DHT22;1940;51.052;13.678;2023-04-15T10:01:37;10.30;85.70
3850;DHT22;1940;51.052;13.678;2023-04-15T10:04:05;10.20;86.60
3850;DHT22;1940;51.052;13.678;2023-04-15T10:06:31;10.20;86.50
3850;DHT22;1940;51.052;13.678;2023-04-15T10:08:57;10.20;85.70
3850;DHT22;1940;51.052;13.678;2023-04-15T10:11:23;10.20;85.60
3850;DHT22;1940;51.052;13.678;2023-04-15T10:13:50;10.20;85.50
3850;DHT22;1940;51.052;13.678;2023-04-15T10:16:19;10.20;84.70
3850;DHT22;1940;51.052;13.678;2023-04-15T10:18:46;10.10;84.50
3850;DHT22;1940;51.052;13.678;2023-04-15T10:21:13;10.10;84.90
3850;DHT22;1940;51.052;13.678;2023-04-15T10:23:44;10.10;85.20
3850;DHT22;1940;51.052;13.678;2023-04-15T10:26:11;10.10;85.30
3850;DHT22;1940;51.052;13.678;2023-04-15T10:28:37;10.10;86.30
3850;DHT22;1940;51.052;13.678;2023-04-15T10:31:04;10.10;85.90
3850;DHT22;1940;51.052;13.678;2023-04-15T10:33:30;10.00;86.10
3850;DHT22;1940;51.052;13.678;2023-04-15T10:35:56;9.90;86.20
3850;DHT22;1940;51.052;13.678;2023-04-15T10:38:43;9.90;85.70
3850;DHT22;1940;51.052;13.678;2023-04-15T10:41:26;9.90;85.80
3850;DHT22;1940;51.052;13.678;2023-04-15T10:43:54;9.90;86.00
3850;DHT22;1940;51.052;13.678;2023-04-15T10:48:50;9.80;85.50
3850;DHT22;1940;51.052;13.678;2023-04-15T10:51:25;9.80;85.40
3850;DHT22;1940;51.052;13.678;2023-04-15T10:53:55;10.00;85.40
3850;DHT22;1940;51.052;13.678;2023-04-15T10:56:21;10.00;85.10
3850;DHT22;1940;51.052;13.678;2023-04-15T10:58:47;10.10;85.00
3850;DHT22;1940;51.052;13.678;2023-04-15T11:01:12;10.10;85.30
3850;DHT22;1940;51.052;13.678;2023-04-15T11:03:40;10.30;84.90
3850;DHT22;1940;51.052;13.678;2023-04-15T11:06:07;10.40;84.10
3850;DHT22;1940;51.052;13.678;2023-04-15T11:08:52;10.40;84.50
3850;DHT22;1940;51.052;13.678;2023-04-15T11:11:18;10.50;83.90
3850;DHT22;1940;51.052;13.678;2023-04-15T11:13:49;10.60;83.80
3850;DHT22;1940;51.052;13.678;2023-04-15T11:16:15;10.70;82.70
3850;DHT22;1940;51.052;13.678;2023-04-15T11:18:41;10.70;82.60
3850;DHT22;1940;51.052;13.678;2023-04-15T11:21:07;10.80;82.90
3850;DHT22;1940;51.052;13.678;2023-04-15T11:23:40;10.80;82.00
3850;DHT22;1940;51.052;13.678;2023-04-15T11:26:09;10.80;81.70
3850;DHT22;1940;51.052;13.678;2023-04-15T11:28:37;10.70;81.60
3850;DHT22;1940;51.052;13.678;2023-04-15T11:31:11;10.70;81.80
3850;DHT22;1940;51.052;13.678;2023-04-15T11:33:38;10.70;81.30
3850;DHT22;1940;51.052;13.678;2023-04-15T11:36:03;10.60;82.10
3850;DHT22;1940;51.052;13.678;2023-04-15T11:38:29;10.70;82.00
3850;DHT22;1940;51.052;13.678;2023-04-15T11:40:55;10.80;81.70
3850;DHT22;1940;51.052;13.678;2023-04-15T11:43:22;10.80;81.60
3850;DHT22;1940;51.052;13.678;2023-04-15T11:45:59;10.70;81.60
3850;DHT22;1940;51.052;13.678;2023-04-15T11:48:30;10.70;82.10
3850;DHT22;1940;51.052;13.678;2023-04-15T11:51:06;10.60;82.00
3850;DHT22;1940;51.052;13.678;2023-04-15T11:56:05;10.90;81.70
3850;DHT22;1940;51.052;13.678;2023-04-15T11:58:34;10.90;81.70
3850;DHT22;1940;51.052;13.678;2023-04-15T12:01:01;11.00;81.20
3850;DHT22;1940;51.052;13.678;2023-04-15T12:06:17;10.90;80.40
3850;DHT22;1940;51.052;13.678;2023-04-15T12:14:50;10.80;80.60
3850;DHT22;1940;51.052;13.678;2023-04-15T12:16:52;10.90;80.50
3850;DHT22;1940;51.052;13.678;2023-04-15T12:19:23;10.90;80.40
3850;DHT22;1940;51.052;13.678;2023-04-15T12:21:49;10.80;80.30
3850;DHT22;1940;51.052;13.678;2023-04-15T12:24:19;10.80;79.90
3850;DHT22;1940;51.052;13.678;2023-04-15T12:26:51;10.80;80.20
3850;DHT22;1940;51.052;13.678;2023-04-15T12:29:17;10.70;80.30
3850;DHT22;1940;51.052;13.678;2023-04-15T12:31:58;10.70;80.70
3850;DHT22;1940;51.052;13.678;2023-04-15T12:34:32;10.90;80.90
3850;DHT22;1940;51.052;13.678;2023-04-15T12:36:59;10.90;79.80
3850;DHT22;1940;51.052;13.678;2023-04-15T12:39:26;11.00;80.50
3850;DHT22;1940;51.052;13.678;2023-04-15T12:41:52;11.10;80.50
3850;DHT22;1940;51.052;13.678;2023-04-15T12:44:18;11.10;79.30
3850;DHT22;1940;51.052;13.678;2023-04-15T12:46:44;11.20;79.70
3850;DHT22;1940;51.052;13.678;2023-04-15T12:49:10;11.20;79.20
3850;DHT22;1940;51.052;13.678;2023-04-15T12:51:36;11.20;78.70
3850;DHT22;1940;51.052;13.678;2023-04-15T12:54:01;11.20;78.70
3850;DHT22;1940;51.052;13.678;2023-04-15T12:56:26;11.20;78.60
3850;DHT22;1940;51.052;13.678;2023-04-15T12:58:52;11.00;79.10
3850;DHT22;1940;51.052;13.678;2023-04-15T13:01:17;11.00;79.40
3850;DHT22;1940;51.052;13.678;2023-04-15T13:03:43;11.10;79.80
3850;DHT22;1940;51.052;13.678;2023-04-15T13:06:09;11.10;79.80
3850;DHT22;1940;51.052;13.678;2023-04-15T13:08:34;11.00;79.00
3850;DHT22;1940;51.052;13.678;2023-04-15T13:11:00;11.00;78.80
3850;DHT22;1940;51.052;13.678;2023-04-15T13:13:26;11.00;79.00
3850;DHT22;1940;51.052;13.678;2023-04-15T13:15:51;11.00;78.70
3850;DHT22;1940;51.052;13.678;2023-04-15T13:18:17;11.00;79.30
3850;DHT22;1940;51.052;13.678;2023-04-15T13:20:43;11.00;79.30
3850;DHT22;1940;51.052;13.678;2023-04-15T13:23:08;11.00;79.40
3850;DHT22;1940;51.052;13.678;2023-04-15T13:25:34;11.10;79.00
3850;DHT22;1940;51.052;13.678;2023-04-15T13:27:59;11.10;78.80
3850;DHT22;1940;51.052;13.678;2023-04-15T13:30:26;11.20;78.30
3850;DHT22;1940;51.052;13.678;2023-04-15T13:32:52;11.10;78.20
3850;DHT22;1940;51.052;13.678;2023-04-15T13:35:18;11.10;78.20
3850;DHT22;1940;51.052;13.678;2023-04-15T13:37:44;11.20;78.00
3850;DHT22;1940;51.052;13.678;2023-04-15T13:40:10;11.30;78.50
3850;DHT22;1940;51.052;13.678;2023-04-15T13:42:35;11.40;77.70
3850;DHT22;1940;51.052;13.678;2023-04-15T13:45:01;11.50;77.70
3850;DHT22;1940;51.052;13.678;2023-04-15T13:47:27;11.50;78.10
3850;DHT22;1940;51.052;13.678;2023-04-15T13:49:52;11.60;77.40
3850;DHT22;1940;51.052;13.678;2023-04-15T13:52:20;11.60;77.50
3850;DHT22;1940;51.052;13.678;2023-04-15T13:54:45;11.60;77.70
3850;DHT22;1940;51.052;13.678;2023-04-15T13:57:12;11.50;78.00
3850;DHT22;1940;51.052;13.678;2023-04-15T13:59:37;11.50;78.00
3850;DHT22;1940;51.052;13.678;2023-04-15T14:02:03;11.50;78.30
3850;DHT22;1940;51.052;13.678;2023-04-15T14:04:30;11.50;78.60
3850;DHT22;1940;51.052;13.678;2023-04-15T14:06:56;11.50;78.90
3850;DHT22;1940;51.052;13.678;2023-04-15T14:09:21;11.50;78.90
3850;DHT22;1940;51.052;13.678;2023-04-15T14:11:51;11.30;79.40
3850;DHT22;1940;51.052;13.678;2023-04-15T14:14:16;11.20;79.60
3850;DHT22;1940;51.052;13.678;2023-04-15T14:16:42;11.30;79.60
3850;DHT22;1940;51.052;13.678;2023-04-15T14:19:08;11.40;79.60
3850;DHT22;1940;51.052;13.678;2023-04-15T14:21:33;11.50;79.50
3850;DHT22;1940;51.052;13.678;2023-04-15T14:23:59;11.60;79.30
3850;DHT22;1940;51.052;13.678;2023-04-15T14:26:27;11.70;79.00
3850;DHT22;1940;51.052;13.678;2023-04-15T14:28:53;11.90;78.90
3850;DHT22;1940;51.052;13.678;2023-04-15T14:31:18;12.10;78.70
3850;DHT22;1940;51.052;13.678;2023-04-15T14:33:44;12.20;77.50
3850;DHT22;1940;51.052;13.678;2023-04-15T14:36:10;12.30;77.50
3850;DHT22;1940;51.052;13.678;2023-04-15T14:38:36;12.30;76.80
3850;DHT22;1940;51.052;13.678;2023-04-15T14:41:08;12.40;76.60
3850;DHT22;1940;51.052;13.678;2023-04-15T14:43:34;12.50;76.00
3850;DHT22;1940;51.052;13.678;2023-04-15T14:46:00;12.60;75.80
3850;DHT22;1940;51.052;13.678;2023-04-15T14:48:26;12.50;76.70
3850;DHT22;1940;51.052;13.678;2023-04-15T14:50:52;12.50;76.70
3850;DHT22;1940;51.052;13.678;2023-04-15T14:53:17;12.40;76.70
3850;DHT22;1940;51.052;13.678;2023-04-15T14:55:43;12.40;76.40
3850;DHT22;1940;51.052;13.678;2023-04-15T14:58:10;12.40;77.00
3850;DHT22;1940;51.052;13.678;2023-04-15T15:00:36;12.40;76.70
3850;DHT22;1940;51.052;13.678;2023-04-15T15:03:04;12.50;76.60
3850;DHT22;1940;51.052;13.678;2023-04-15T15:05:38;12.60;76.50
3850;DHT22;1940;51.052;13.678;2023-04-15T15:08:07;12.60;76.40
3850;DHT22;1940;51.052;13.678;2023-04-15T15:10:34;12.60;76.20
3850;DHT22;1940;51.052;13.678;2023-04-15T15:13:02;12.50;77.10
3850;DHT22;1940;51.052;13.678;2023-04-15T15:15:28;12.40;76.90
3850;DHT22;1940;51.052;13.678;2023-04-15T15:17:54;12.50;76.70
3850;DHT22;1940;51.052;13.678;2023-04-15T15:20:19;12.50;76.70
3850;DHT22;1940;51.052;13.678;2023-04-15T15:22:45;12.60;77.30
3850;DHT22;1940;51.052;13.678;2023-04-15T15:25:10;12.40;76.70
3850;DHT22;1940;51.052;13.678;2023-04-15T15:27:36;12.60;76.00
3850;DHT22;1940;51.052;13.678;2023-04-15T15:30:02;12.50;76.10
3850;DHT22;1940;51.052;13.678;2023-04-15T15:32:28;12.50;76.40
3850;DHT22;1940;51.052;13.678;2023-04-15T15:34:53;12.50;77.00
3850;DHT22;1940;51.052;13.678;2023-04-15T15:37:19;12.40;77.00
3850;DHT22;1940;51.052;13.678;2023-04-15T15:39:44;12.40;77.20
3850;DHT22;1940;51.052;13.678;2023-04-15T15:42:10;12.40;77.20
3850;DHT22;1940;51.052;13.678;2023-04-15T15:44:36;12.40;77.90
3850;DHT22;1940;51.052;13.678;2023-04-15T15:47:03;12.40;77.10
3850;DHT22;1940;51.052;13.678;2023-04-15T15:49:29;12.40;77.30
3850;DHT22;1940;51.052;13.678;2023-04-15T15:51:55;12.50;76.50
3850;DHT22;1940;51.052;13.678;2023-04-15T15:54:20;12.50;76.70
3850;DHT22;1940;51.052;13.678;2023-04-15T15:56:46;12.40;77.00
3850;DHT22;1940;51.052;13.678;2023-04-15T15:59:11;12.30;76.80
3850;DHT22;1940;51.052;13.678;2023-04-15T16:01:37;12.40;76.80
3850;DHT22;1940;51.052;13.678;2023-04-15T16:04:02;12.30;77.40
3850;DHT22;1940;51.052;13.678;2023-04-15T16:06:28;12.30;78.20
3850;DHT22;1940;51.052;13.678;2023-04-15T16:08:53;12.20;77.90